createdAt,value
2023-02-13T00:01:57.498Z,26.88
2023-02-13T00:04:24.260Z,31.05
2023-02-13T00:06:51.076Z,27.67
2023-02-13T00:09:17.697Z,29.25
2023-02-13T00:11:44.279Z,30.13
2023-02-13T00:14:10.975Z,28.20
2023-02-13T00:16:37.580Z,29.00
2023-02-13T00:19:04.345Z,31.85
2023-02-13T00:21:30.979Z,30.80
2023-02-13T00:23:57.619Z,28.20
2023-02-13T00:26:24.239Z,25.42
2023-02-13T00:28:50.961Z,27.67
2023-02-13T00:31:20.747Z,21.70
2023-02-13T00:33:48.935Z,24.55
2023-02-13T00:36:22.163Z,25.10
2023-02-13T00:38:49.483Z,27.38
2023-02-13T00:41:17.412Z,30.15
2023-02-13T00:43:44.937Z,25.63
2023-02-13T00:46:11.733Z,28.10
2023-02-13T00:48:38.707Z,25.40
2023-02-13T00:51:06.738Z,29.13
2023-02-13T00:53:34.331Z,25.63
2023-02-13T00:56:01.448Z,26.63
2023-02-13T00:58:28.193Z,27.98
2023-02-13T01:00:56.234Z,26.77
2023-02-13T01:03:24.420Z,26.23
2023-02-13T01:05:51.981Z,30.38
2023-02-13T01:08:20.400Z,28.35
2023-02-13T01:10:48.740Z,22.65
2023-02-13T01:13:18.338Z,31.70
2023-02-13T01:18:20.499Z,30.38
2023-02-13T01:20:59.682Z,30.08
2023-02-13T01:23:30.493Z,28.40
2023-02-13T01:25:57.134Z,27.33
2023-02-13T01:28:24.852Z,29.48
2023-02-13T01:30:56.875Z,31.85
2023-02-13T01:33:26.981Z,33.08
2023-02-13T01:35:53.862Z,26.05
2023-02-13T01:38:21.119Z,30.17
2023-02-13T01:40:52.887Z,27.85
2023-02-13T01:43:23.336Z,31.23
2023-02-13T01:45:53.719Z,29.63
2023-02-13T01:48:24.383Z,29.30
2023-02-13T01:51:07.030Z,32.65
2023-02-13T01:53:40.253Z,30.77
2023-02-13T01:56:35.117Z,29.55
2023-02-13T01:59:06.923Z,33.03
2023-02-13T02:01:34.435Z,29.15
2023-02-13T02:04:08.463Z,31.98
2023-02-13T02:06:40.979Z,33.35
2023-02-13T02:09:18.747Z,31.67
2023-02-13T02:12:04.691Z,30.05
2023-02-13T02:14:35.100Z,30.33
2023-02-13T02:17:01.997Z,29.98
2023-02-13T02:19:41.848Z,30.52
2023-02-13T02:22:32.988Z,32.25
2023-02-13T02:25:27.502Z,27.67
2023-02-13T02:28:25.601Z,33.58
2023-02-13T02:31:14.334Z,27.65
2023-02-13T02:33:59.654Z,31.73
2023-02-13T02:40:03.573Z,30.20
2023-02-13T02:42:54.823Z,30.05
2023-02-13T02:45:50.709Z,30.15
2023-02-13T02:48:50.389Z,31.25
2023-02-13T02:51:27.162Z,35.33
2023-02-13T02:54:40.188Z,29.40
2023-02-13T02:57:21.743Z,28.13
2023-02-13T03:00:18.632Z,29.15
2023-02-13T03:03:11.837Z,32.83
2023-02-13T03:06:01.085Z,30.45
2023-02-13T03:08:47.850Z,31.73
2023-02-13T03:11:33.045Z,29.73
2023-02-13T03:14:03.464Z,29.13
2023-02-13T03:16:49.013Z,29.63
2023-02-13T03:20:12.764Z,31.70
2023-02-13T03:23:10.577Z,29.58
2023-02-13T03:25:47.107Z,30.02
2023-02-13T03:28:41.335Z,34.35
2023-02-13T03:31:26.850Z,32.10
2023-02-13T03:33:59.523Z,29.75
2023-02-13T03:37:05.691Z,27.98
2023-02-13T03:39:38.238Z,31.70
2023-02-13T03:42:09.987Z,28.83
2023-02-13T03:44:44.676Z,28.85
2023-02-13T03:47:14.057Z,31.33
2023-02-13T03:50:07.017Z,28.85
2023-02-13T03:52:57.783Z,26.60
2023-02-13T03:55:49.053Z,31.55
2023-02-13T03:58:41.517Z,31.35
2023-02-13T04:01:12.625Z,30.63
2023-02-13T04:04:05.161Z,29.10
2023-02-13T04:06:38.967Z,29.42
2023-02-13T04:09:05.569Z,28.88
2023-02-13T04:11:49.584Z,28.98
2023-02-13T04:14:32.309Z,26.95
2023-02-13T04:17:05.597Z,29.48
2023-02-13T04:19:33.394Z,25.42
2023-02-13T04:22:02.620Z,26.45
2023-02-13T04:24:29.182Z,27.67
2023-02-13T04:26:56.289Z,26.17
2023-02-13T04:29:24.383Z,26.40
2023-02-13T04:31:51.206Z,27.58
2023-02-13T04:34:18.205Z,30.17
2023-02-13T04:36:44.774Z,26.27
2023-02-13T04:39:11.977Z,30.25
2023-02-13T04:41:38.656Z,28.85
2023-02-13T04:44:05.457Z,24.73
2023-02-13T04:46:31.997Z,26.60
2023-02-13T04:48:58.662Z,27.50
2023-02-13T04:51:25.159Z,23.25
2023-02-13T04:53:51.848Z,26.63
2023-02-13T04:56:19.888Z,23.27
2023-02-13T04:58:46.779Z,24.10
2023-02-13T05:01:14.400Z,24.00
2023-02-13T05:03:41.077Z,23.10
2023-02-13T05:06:08.143Z,22.92
2023-02-13T05:08:35.299Z,21.15
2023-02-13T05:11:01.937Z,23.10
2023-02-13T05:13:28.523Z,23.38
2023-02-13T05:15:55.237Z,22.50
2023-02-13T05:18:21.854Z,25.88
2023-02-13T05:21:10.992Z,23.00
2023-02-13T05:23:37.694Z,22.77
2023-02-13T05:26:04.496Z,24.52
2023-02-13T05:28:49.854Z,27.08
2023-02-13T05:31:16.607Z,25.77
2023-02-13T05:33:43.422Z,24.65
2023-02-13T05:36:10.024Z,23.35
2023-02-13T05:38:36.732Z,27.80
2023-02-13T05:41:03.394Z,29.80
2023-02-13T05:43:30.506Z,25.55
2023-02-13T05:46:09.174Z,26.52
2023-02-13T05:48:36.800Z,23.03
2023-02-13T05:51:03.621Z,23.95
2023-02-13T05:53:30.385Z,25.98
2023-02-13T05:55:57.020Z,24.35
2023-02-13T05:58:23.669Z,26.65
2023-02-13T06:00:50.345Z,22.88
2023-02-13T06:03:17.087Z,26.90
2023-02-13T06:05:43.717Z,26.23
2023-02-13T06:08:10.401Z,25.08
2023-02-13T06:10:37.085Z,25.52
2023-02-13T06:13:03.764Z,24.33
2023-02-13T06:15:30.342Z,26.85
2023-02-13T06:17:56.934Z,26.55
2023-02-13T06:20:23.773Z,24.50
2023-02-13T06:22:51.471Z,28.10
2023-02-13T06:25:18.506Z,27.00
2023-02-13T06:27:45.313Z,26.08
2023-02-13T06:30:12.765Z,25.50
2023-02-13T06:32:39.607Z,31.15
2023-02-13T06:35:07.113Z,25.33
2023-02-13T06:37:34.219Z,29.52
2023-02-13T06:40:01.313Z,29.45
2023-02-13T06:42:27.965Z,27.58
2023-02-13T06:44:54.637Z,29.00
2023-02-13T06:47:21.223Z,27.77
2023-02-13T06:49:47.848Z,29.30
2023-02-13T06:52:14.454Z,27.60
2023-02-13T06:54:47.655Z,28.35
2023-02-13T06:57:15.670Z,29.40
2023-02-13T06:59:42.762Z,30.92
2023-02-13T07:02:13.201Z,30.65
2023-02-13T07:04:39.870Z,27.83
2023-02-13T07:07:06.727Z,26.23
2023-02-13T07:09:33.318Z,34.10
2023-02-13T07:12:03.844Z,30.95
2023-02-13T07:14:30.519Z,25.58
2023-02-13T07:16:57.431Z,26.63
2023-02-13T07:19:24.001Z,28.17
2023-02-13T07:21:50.779Z,27.10
2023-02-13T07:24:17.353Z,25.40
2023-02-13T07:26:43.953Z,28.92
2023-02-13T07:29:12.099Z,29.02
2023-02-13T07:31:39.904Z,30.33
2023-02-13T07:34:06.797Z,23.48
2023-02-13T07:36:33.990Z,25.63
2023-02-13T07:39:00.574Z,28.33
2023-02-13T07:41:27.204Z,26.10
2023-02-13T07:43:54.744Z,26.83
2023-02-13T07:46:21.669Z,23.17
2023-02-13T07:48:48.474Z,23.05
2023-02-13T07:51:16.386Z,27.20
2023-02-13T07:53:43.047Z,23.52
2023-02-13T07:56:10.780Z,24.77
2023-02-13T07:58:40.579Z,27.98
2023-02-13T08:01:08.773Z,25.65
2023-02-13T08:03:36.008Z,26.58
2023-02-13T08:06:03.222Z,29.52
2023-02-13T08:08:29.974Z,24.95
2023-02-13T08:11:16.536Z,26.33
2023-02-13T08:13:43.544Z,26.65
2023-02-13T08:16:10.253Z,27.58
2023-02-13T08:18:36.832Z,28.48
2023-02-13T08:21:03.956Z,26.27
2023-02-13T08:23:30.684Z,21.23
2023-02-13T08:26:02.386Z,22.58
2023-02-13T08:28:29.963Z,20.48
2023-02-13T08:30:56.666Z,20.15
2023-02-13T08:33:23.423Z,25.30
2023-02-13T08:35:50.054Z,21.17
2023-02-13T08:38:16.689Z,18.80
2023-02-13T08:40:43.239Z,21.40
2023-02-13T08:43:09.852Z,20.08
2023-02-13T08:45:37.170Z,18.05
2023-02-13T08:48:04.269Z,15.90
2023-02-13T08:50:31.323Z,19.75
2023-02-13T08:52:58.561Z,16.35
2023-02-13T08:55:27.724Z,13.98
2023-02-13T08:57:54.392Z,12.23
2023-02-13T09:00:21.453Z,13.02
2023-02-13T09:02:48.087Z,13.55
2023-02-13T09:05:14.842Z,11.55
2023-02-13T09:07:41.583Z,12.82
2023-02-13T09:10:08.521Z,11.30
2023-02-13T09:12:35.193Z,13.10
2023-02-13T09:15:01.841Z,10.27
2023-02-13T09:17:28.516Z,11.27
2023-02-13T09:19:55.106Z,11.02
2023-02-13T09:22:21.692Z,9.00
2023-02-13T09:24:48.319Z,10.90
2023-02-13T09:27:14.931Z,14.02
2023-02-13T09:29:41.604Z,11.75
2023-02-13T09:32:08.220Z,12.07
2023-02-13T09:34:34.924Z,12.93
2023-02-13T09:37:01.584Z,12.77
2023-02-13T09:39:28.268Z,12.38
2023-02-13T09:41:56.409Z,11.85
2023-02-13T09:44:38.906Z,9.55
2023-02-13T09:47:11.790Z,10.10
2023-02-13T09:49:43.753Z,12.27
2023-02-13T09:52:10.756Z,10.88
2023-02-13T09:54:37.477Z,9.93
2023-02-13T09:57:15.080Z,11.23
2023-02-13T10:00:02.362Z,10.13
2023-02-13T10:02:57.478Z,9.13
2023-02-13T10:05:42.370Z,10.60
2023-02-13T10:08:30.483Z,9.73
2023-02-13T10:11:26.033Z,10.00
2023-02-13T10:14:06.640Z,10.93
2023-02-13T10:16:40.598Z,9.00
2023-02-13T10:19:19.375Z,7.97
2023-02-13T10:21:58.047Z,9.35
2023-02-13T10:24:27.655Z,12.17
2023-02-13T10:26:58.008Z,14.73
2023-02-13T10:30:01.422Z,10.50
2023-02-13T10:32:42.167Z,9.55
2023-02-13T10:35:20.828Z,9.43
2023-02-13T10:37:55.159Z,9.73
2023-02-13T10:40:28.633Z,9.38
2023-02-13T10:43:16.562Z,10.13
2023-02-13T10:46:22.740Z,8.45
2023-02-13T10:49:04.487Z,8.48
2023-02-13T10:51:40.509Z,9.10
2023-02-13T10:54:32.032Z,8.98
2023-02-13T10:57:40.070Z,9.48
2023-02-13T11:00:18.450Z,9.40
2023-02-13T11:02:46.406Z,8.23
2023-02-13T11:05:25.947Z,8.30
2023-02-13T11:10:26.542Z,7.35
2023-02-13T11:12:53.596Z,7.40
2023-02-13T11:15:27.171Z,9.43
2023-02-13T11:17:57.762Z,7.53
2023-02-13T11:20:30.290Z,7.03
2023-02-13T11:23:15.270Z,6.68
2023-02-13T11:25:53.202Z,8.23
2023-02-13T11:28:21.560Z,7.90
2023-02-13T11:30:48.972Z,11.38
2023-02-13T11:33:28.398Z,8.95
2023-02-13T11:36:07.337Z,8.68
2023-02-13T11:38:34.311Z,8.25
2023-02-13T11:41:07.916Z,8.15
2023-02-13T11:43:43.777Z,10.63
2023-02-13T11:46:14.383Z,8.77
2023-02-13T11:48:43.632Z,8.98
2023-02-13T11:51:10.288Z,8.13
2023-02-13T11:53:39.664Z,7.78
2023-02-13T11:56:08.085Z,9.73
2023-02-13T11:58:35.887Z,9.00
2023-02-13T12:01:19.694Z,9.50
2023-02-13T12:03:57.293Z,8.23
2023-02-13T12:06:24.001Z,9.85
2023-02-13T12:08:51.424Z,9.20
2023-02-13T12:11:21.044Z,9.43
2023-02-13T12:16:39.453Z,11.88
2023-02-13T12:19:22.114Z,13.32
2023-02-13T12:21:54.547Z,11.30
2023-02-13T12:24:44.424Z,11.93
2023-02-13T12:27:13.889Z,11.32
2023-02-13T12:30:11.901Z,10.98
2023-02-13T12:32:58.559Z,13.05
2023-02-13T12:35:50.088Z,12.55
2023-02-13T12:38:25.685Z,13.25
2023-02-13T12:41:07.385Z,10.95
2023-02-13T12:43:49.330Z,11.02
2023-02-13T12:46:19.009Z,11.85
2023-02-13T12:48:51.644Z,11.68
2023-02-13T12:51:21.276Z,11.18
2023-02-13T12:56:41.059Z,11.45
2023-02-13T12:59:17.110Z,10.60
2023-02-13T13:02:09.218Z,11.55
2023-02-13T13:04:55.145Z,10.93
2023-02-13T13:07:40.881Z,10.13
2023-02-13T13:10:29.311Z,10.63
2023-02-13T13:13:12.987Z,13.48
2023-02-13T13:15:51.999Z,11.60
2023-02-13T13:18:25.856Z,13.00
2023-02-13T13:21:01.975Z,10.13
2023-02-13T13:24:21.950Z,10.20
2023-02-13T13:26:51.952Z,10.43
2023-02-13T13:29:23.713Z,11.85
2023-02-13T13:32:01.991Z,10.65
2023-02-13T13:34:31.423Z,10.88
2023-02-13T13:37:04.828Z,9.85
2023-02-13T13:39:48.871Z,9.35
2023-02-13T13:42:25.533Z,11.82
2023-02-13T13:45:18.129Z,10.60
2023-02-13T13:48:16.596Z,14.40
2023-02-13T13:50:45.570Z,10.18
2023-02-13T13:53:20.911Z,9.07
2023-02-13T13:55:47.574Z,10.70
2023-02-13T13:58:47.497Z,13.32
2023-02-13T14:01:32.671Z,9.50
2023-02-13T14:04:00.287Z,7.97
2023-02-13T14:06:49.598Z,8.45
2023-02-13T14:09:38.939Z,8.32
2023-02-13T14:12:31.576Z,9.98
2023-02-13T14:14:59.291Z,10.18
2023-02-13T14:17:44.212Z,10.20
2023-02-13T14:20:22.274Z,15.15
2023-02-13T14:22:49.169Z,15.40
2023-02-13T14:25:26.913Z,7.85
2023-02-13T14:28:05.647Z,9.10
2023-02-13T14:30:35.827Z,11.93
2023-02-13T14:33:23.835Z,9.55
2023-02-13T14:36:01.591Z,8.57
2023-02-13T14:38:29.434Z,8.27
2023-02-13T14:40:56.946Z,8.93
2023-02-13T14:43:33.106Z,9.32
2023-02-13T14:46:11.968Z,9.02
2023-02-13T14:48:45.996Z,8.68
2023-02-13T14:51:28.753Z,8.40
2023-02-13T14:54:01.531Z,10.32
2023-02-13T14:56:30.453Z,8.65
2023-02-13T14:59:17.949Z,9.25
2023-02-13T15:02:28.488Z,9.63
2023-02-13T15:05:21.801Z,7.40
2023-02-13T15:07:59.097Z,8.50
2023-02-13T15:10:46.859Z,11.30
2023-02-13T15:13:18.296Z,7.72
2023-02-13T15:15:51.072Z,10.43
2023-02-13T15:18:24.902Z,8.98
2023-02-13T15:20:55.555Z,12.15
2023-02-13T15:23:26.667Z,7.90
2023-02-13T15:26:00.831Z,8.93
2023-02-13T15:28:28.590Z,8.02
2023-02-13T15:31:07.278Z,7.82
2023-02-13T15:33:43.989Z,8.07
2023-02-13T15:36:19.357Z,9.05
2023-02-13T15:38:46.085Z,9.02
2023-02-13T15:41:24.416Z,7.78
2023-02-13T15:43:55.868Z,8.27
2023-02-13T15:46:29.665Z,8.35
2023-02-13T15:49:00.340Z,7.72
2023-02-13T15:51:30.456Z,6.90
2023-02-13T15:54:00.874Z,8.50
2023-02-13T15:56:29.057Z,7.93
2023-02-13T15:58:56.852Z,9.73
2023-02-13T16:01:24.525Z,7.97
2023-02-13T16:04:06.290Z,9.75
2023-02-13T16:06:33.455Z,10.93
2023-02-13T16:09:01.595Z,13.95
2023-02-13T16:11:44.195Z,16.25
2023-02-13T16:14:17.394Z,11.40
2023-02-13T16:16:44.454Z,17.42
2023-02-13T16:19:37.459Z,40.35
2023-02-13T16:22:35.185Z,28.88
2023-02-13T16:25:17.075Z,39.00
2023-02-13T16:27:48.566Z,53.60
2023-02-13T16:30:33.398Z,52.53
2023-02-13T16:33:15.648Z,53.30
2023-02-13T16:35:44.520Z,40.70
2023-02-13T16:38:29.914Z,47.70
2023-02-13T16:41:03.967Z,31.40
2023-02-13T16:43:34.490Z,17.70
2023-02-13T16:46:19.258Z,22.65
2023-02-13T16:48:59.564Z,14.15
2023-02-13T16:51:49.792Z,7.47
2023-02-13T16:54:47.918Z,7.45
2023-02-13T16:57:14.483Z,8.73
2023-02-13T16:59:47.065Z,8.25
2023-02-13T17:02:16.601Z,8.57
2023-02-13T17:07:21.314Z,10.77
2023-02-13T17:09:56.580Z,10.77
2023-02-13T17:12:23.894Z,10.93
2023-02-13T17:14:50.785Z,15.70
2023-02-13T17:17:19.477Z,12.77
2023-02-13T17:19:46.272Z,17.43
2023-02-13T17:22:30.609Z,12.73
2023-02-13T17:24:58.766Z,9.25
2023-02-13T17:27:25.768Z,11.15
2023-02-13T17:29:52.428Z,11.40
2023-02-13T17:32:25.664Z,12.93
2023-02-13T17:34:52.316Z,15.18
2023-02-13T17:37:25.240Z,18.17
2023-02-13T17:39:52.840Z,16.33
2023-02-13T17:42:28.218Z,15.23
2023-02-13T17:44:56.889Z,17.90
2023-02-13T17:47:24.934Z,18.63
2023-02-13T17:49:55.145Z,20.67
2023-02-13T17:52:31.052Z,19.77
2023-02-13T17:54:57.613Z,19.33
2023-02-13T17:57:24.188Z,15.30
2023-02-13T17:59:50.942Z,17.83
2023-02-13T18:02:20.752Z,17.48
2023-02-13T18:04:48.763Z,16.15
2023-02-13T18:07:21.035Z,14.45
2023-02-13T18:09:48.060Z,13.90
2023-02-13T18:12:17.225Z,15.98
2023-02-13T18:14:43.868Z,12.90
2023-02-13T18:17:11.495Z,11.82
2023-02-13T18:19:38.415Z,12.93
2023-02-13T18:22:07.785Z,13.38
2023-02-13T18:24:36.512Z,13.48
2023-02-13T18:27:03.735Z,15.37
2023-02-13T18:29:30.553Z,20.85
2023-02-13T18:31:57.933Z,23.90
2023-02-13T18:34:24.829Z,23.05
2023-02-13T18:36:51.538Z,22.92
2023-02-13T18:39:18.539Z,26.45
2023-02-13T18:41:45.513Z,20.88
2023-02-13T18:44:17.282Z,22.30
2023-02-13T18:46:50.103Z,19.33
2023-02-13T18:49:16.929Z,17.25
2023-02-13T18:51:44.427Z,18.17
2023-02-13T18:54:11.422Z,18.92
2023-02-13T18:56:38.009Z,19.48
2023-02-13T18:59:04.755Z,21.27
2023-02-13T19:01:31.450Z,18.15
2023-02-13T19:03:58.088Z,16.67
2023-02-13T19:06:25.629Z,17.10
2023-02-13T19:08:52.319Z,22.05
2023-02-13T19:11:23.283Z,20.52
2023-02-13T19:13:56.989Z,23.20
2023-02-13T19:16:24.638Z,26.85
2023-02-13T19:18:53.636Z,22.20
2023-02-13T19:21:22.894Z,20.67
2023-02-13T19:23:50.357Z,17.95
2023-02-13T19:26:19.786Z,19.75
2023-02-13T19:28:47.027Z,16.83
2023-02-13T19:31:19.945Z,18.75
2023-02-13T19:33:48.963Z,20.95
2023-02-13T19:36:21.930Z,19.67
2023-02-13T19:38:54.305Z,23.92
2023-02-13T19:41:21.028Z,22.13
2023-02-13T19:43:51.285Z,21.13
2023-02-13T19:46:20.595Z,22.23
2023-02-13T19:48:47.362Z,22.40
2023-02-13T19:51:16.311Z,19.15
2023-02-13T19:53:43.272Z,26.42
2023-02-13T19:56:10.604Z,28.05
2023-02-13T19:58:38.323Z,28.17
2023-02-13T20:01:16.738Z,27.77
2023-02-13T20:03:44.256Z,25.88
2023-02-13T20:06:14.404Z,24.75
2023-02-13T20:08:43.045Z,23.25
2023-02-13T20:11:11.832Z,23.07
2023-02-13T20:13:39.544Z,21.42
2023-02-13T20:16:08.108Z,22.95
2023-02-13T20:18:35.648Z,21.75
2023-02-13T20:21:14.410Z,21.25
2023-02-13T20:23:42.387Z,21.70
2023-02-13T20:26:16.796Z,23.30
2023-02-13T20:28:46.016Z,21.33
2023-02-13T20:31:15.093Z,19.27
2023-02-13T20:33:42.216Z,19.77
2023-02-13T20:36:13.414Z,18.20
2023-02-13T20:38:40.954Z,19.95
2023-02-13T20:41:12.232Z,18.98
2023-02-13T20:43:39.036Z,23.60
2023-02-13T20:46:06.477Z,21.80
2023-02-13T20:48:38.948Z,25.60
2023-02-13T20:51:08.901Z,24.38
2023-02-13T20:53:35.612Z,26.63
2023-02-13T20:56:20.588Z,28.83
2023-02-13T20:58:57.137Z,32.40
2023-02-13T21:01:32.684Z,29.00
2023-02-13T21:03:59.905Z,26.65
2023-02-13T21:06:34.840Z,23.17
2023-02-13T21:09:02.750Z,26.55
2023-02-13T21:11:29.924Z,26.95
2023-02-13T21:13:58.143Z,27.13
2023-02-13T21:16:29.674Z,27.33
2023-02-13T21:18:58.931Z,27.05
2023-02-13T21:21:27.988Z,26.27
2023-02-13T21:24:03.495Z,27.75
2023-02-13T21:26:30.732Z,27.55
2023-02-13T21:28:58.392Z,27.15
2023-02-13T21:31:30.349Z,33.70
2023-02-13T21:33:59.418Z,30.92
2023-02-13T21:36:26.955Z,26.58
2023-02-13T21:38:53.818Z,30.77
2023-02-13T21:41:20.792Z,30.92
2023-02-13T21:43:49.266Z,31.08
2023-02-13T21:46:22.133Z,30.67
2023-02-13T21:49:12.447Z,35.00
2023-02-13T21:51:39.309Z,30.85
2023-02-13T21:54:06.152Z,28.20
2023-02-13T21:56:37.778Z,31.77
2023-02-13T21:59:05.362Z,29.90
2023-02-13T22:01:44.423Z,25.77
2023-02-13T22:04:11.140Z,24.98
2023-02-13T22:06:39.977Z,27.67
2023-02-13T22:09:09.901Z,29.85
2023-02-13T22:11:37.334Z,25.40
2023-02-13T22:14:07.592Z,28.48
2023-02-13T22:16:37.822Z,27.75
2023-02-13T22:19:06.346Z,26.02
2023-02-13T22:21:34.753Z,25.27
2023-02-13T22:24:01.361Z,23.23
2023-02-13T22:26:30.341Z,25.33
2023-02-13T22:29:00.872Z,27.15
2023-02-13T22:31:27.891Z,26.40
2023-02-13T22:34:03.527Z,26.00
2023-02-13T22:36:40.056Z,29.02
2023-02-13T22:39:08.793Z,28.85
2023-02-13T22:41:35.871Z,25.73
2023-02-13T22:44:02.590Z,26.85
2023-02-13T22:46:31.340Z,25.95
2023-02-13T22:48:59.002Z,23.55
2023-02-13T22:51:34.720Z,24.88
2023-02-13T22:54:01.838Z,21.70
2023-02-13T22:56:29.689Z,24.38
2023-02-13T22:58:57.170Z,21.75
2023-02-13T23:01:26.044Z,24.52
2023-02-13T23:03:52.832Z,21.13
2023-02-13T23:06:19.903Z,22.48
2023-02-13T23:08:49.114Z,23.75
2023-02-13T23:11:35.414Z,23.63
2023-02-13T23:14:02.390Z,23.65
2023-02-13T23:16:49.583Z,25.38
2023-02-13T23:19:16.217Z,26.40
2023-02-13T23:21:42.822Z,24.83
2023-02-13T23:24:09.445Z,22.98
2023-02-13T23:26:35.987Z,26.02
2023-02-13T23:29:02.578Z,20.60
2023-02-13T23:31:29.290Z,21.08
2023-02-13T23:33:55.960Z,21.77
2023-02-13T23:36:22.616Z,20.17
2023-02-13T23:38:49.237Z,21.25
2023-02-13T23:41:15.813Z,20.35
2023-02-13T23:43:42.356Z,19.80
2023-02-13T23:46:08.968Z,17.92
2023-02-13T23:48:35.596Z,19.05
2023-02-13T23:51:02.383Z,15.13
2023-02-13T23:53:29.284Z,21.40
2023-02-13T23:55:56.020Z,17.00
2023-02-13T23:58:23.157Z,18.48
